createdAt,value
2018-01-12T00:00:51.918Z,99995.23
2018-01-12T00:03:24.348Z,99991.13
2018-01-12T00:05:55.802Z,99984.03
2018-01-12T00:08:27.395Z,99986.83
2018-01-12T00:10:59.221Z,99981.89
2018-01-12T00:13:30.801Z,99990.90
2018-01-12T00:16:02.376Z,99995.77
2018-01-12T00:18:34.329Z,99994.70
2018-01-12T00:21:05.974Z,99991.93
2018-01-12T00:23:37.982Z,100000.75
2018-01-12T00:26:09.499Z,100002.17
2018-01-12T00:28:40.791Z,99998.93
2018-01-12T00:31:12.982Z,100004.67
2018-01-12T00:33:45.335Z,100007.61
2018-01-12T00:37:20.581Z,100005.80
2018-01-12T00:39:52.777Z,100012.51
2018-01-12T00:42:25.587Z,100012.14
2018-01-12T00:45:00.268Z,100008.55
2018-01-12T00:47:32.519Z,100004.84
2018-01-12T00:50:05.308Z,100007.90
2018-01-12T00:52:37.191Z,100012.26
2018-01-12T00:55:10.710Z,100016.67
2018-01-12T00:57:43.364Z,100018.51
2018-01-12T01:00:15.562Z,100018.61
2018-01-12T01:02:48.201Z,100009.73
2018-01-12T01:05:20.081Z,100022.43
2018-01-12T01:07:51.554Z,100026.34
2018-01-12T01:10:25.212Z,100027.88
2018-01-12T01:12:56.778Z,100026.86
2018-01-12T01:15:28.850Z,100030.16
2018-01-12T01:18:00.195Z,100037.06
2018-01-12T01:20:32.002Z,100044.64
2018-01-12T01:23:03.358Z,100044.55
2018-01-12T01:25:34.667Z,100054.51
2018-01-12T01:28:06.684Z,100052.31
2018-01-12T01:30:38.240Z,100054.53
2018-01-12T01:33:09.881Z,100061.86
2018-01-12T01:35:42.658Z,100066.39
2018-01-12T01:38:15.283Z,100064.08
2018-01-12T01:40:47.385Z,100059.19
2018-01-12T01:43:19.578Z,100069.71
2018-01-12T01:45:51.179Z,100071.36
2018-01-12T01:48:31.837Z,100068.30
2018-01-12T01:51:04.061Z,100066.09
2018-01-12T01:53:36.448Z,100071.66
2018-01-12T01:56:08.319Z,100066.12
2018-01-12T01:58:40.039Z,100070.44
2018-01-12T02:01:13.392Z,100061.20
2018-01-12T02:03:45.127Z,100076.17
2018-01-12T02:06:17.218Z,100073.44
2018-01-12T02:08:49.676Z,100070.41
2018-01-12T02:11:21.379Z,100071.91
2018-01-12T02:13:52.883Z,100073.92
2018-01-12T02:16:24.447Z,100078.88
2018-01-12T02:18:56.214Z,100074.23
2018-01-12T02:21:28.589Z,100075.48
2018-01-12T02:24:00.486Z,100068.03
2018-01-12T02:26:32.241Z,100068.27
2018-01-12T02:29:04.003Z,100071.70
2018-01-12T02:31:36.324Z,100070.44
2018-01-12T02:34:08.075Z,100072.16
2018-01-12T02:36:39.966Z,100070.91
2018-01-12T02:39:11.272Z,100090.10
2018-01-12T02:41:42.642Z,100084.61
2018-01-12T02:44:15.377Z,100079.40
2018-01-12T02:46:46.996Z,100082.83
2018-01-12T02:49:19.263Z,100096.63
2018-01-12T02:51:52.593Z,100092.00
2018-01-12T02:54:24.447Z,100092.89
2018-01-12T02:56:57.316Z,100095.36
2018-01-12T02:59:30.659Z,100091.51
2018-01-12T03:02:02.714Z,100085.19
2018-01-12T03:04:34.040Z,100087.37
2018-01-12T03:07:06.127Z,100093.16
2018-01-12T03:09:37.893Z,100092.30
2018-01-12T03:12:09.989Z,100098.09
2018-01-12T03:14:41.364Z,100100.66
2018-01-12T03:17:13.016Z,100105.78
2018-01-12T03:19:44.862Z,100111.45
2018-01-12T03:22:16.755Z,100112.78
2018-01-12T03:24:48.459Z,100102.59
2018-01-12T03:27:21.073Z,100112.46
2018-01-12T03:29:52.772Z,100113.98
2018-01-12T03:32:24.413Z,100115.55
2018-01-12T03:34:56.231Z,100106.69
2018-01-12T03:37:28.083Z,100112.72
2018-01-12T03:40:00.257Z,100116.93
2018-01-12T03:42:32.044Z,100120.44
2018-01-12T03:45:04.244Z,100117.31
2018-01-12T03:47:35.991Z,100110.58
2018-01-12T03:50:07.355Z,100118.66
2018-01-12T03:52:38.718Z,100120.66
2018-01-12T03:55:12.141Z,100124.75
2018-01-12T03:57:43.866Z,100128.01
2018-01-12T04:00:16.237Z,100122.36
2018-01-12T04:02:48.377Z,100133.27
2018-01-12T04:05:19.924Z,100131.31
2018-01-12T04:07:51.349Z,100138.00
2018-01-12T04:10:29.108Z,100129.34
2018-01-12T04:13:00.935Z,100141.19
2018-01-12T04:15:32.332Z,100143.16
2018-01-12T04:18:04.735Z,100146.96
2018-01-12T04:20:39.900Z,100149.92
2018-01-12T04:23:11.578Z,100145.62
2018-01-12T04:25:43.728Z,100145.03
2018-01-12T04:28:15.135Z,100147.16
2018-01-12T04:30:46.894Z,100134.91
2018-01-12T04:33:19.047Z,100157.09
2018-01-12T04:35:50.412Z,100153.33
2018-01-12T04:38:21.622Z,100151.17
2018-01-12T04:40:53.273Z,100153.44
2018-01-12T04:43:24.621Z,100153.03
2018-01-12T04:45:56.096Z,100158.27
2018-01-12T04:48:28.466Z,100148.56
2018-01-12T04:50:59.897Z,100153.02
2018-01-12T04:53:31.493Z,100153.86
2018-01-12T04:56:03.688Z,100157.20
2018-01-12T04:58:35.374Z,100149.45
2018-01-12T05:01:06.887Z,100154.84
2018-01-12T05:03:39.130Z,100163.84
2018-01-12T05:06:11.487Z,100164.48
2018-01-12T05:08:43.326Z,100169.05
2018-01-12T05:11:14.616Z,100173.02
2018-01-12T05:13:45.819Z,100173.18
2018-01-12T05:16:18.043Z,100171.54
2018-01-12T05:18:50.056Z,100173.15
2018-01-12T05:21:21.850Z,100175.13
2018-01-12T05:23:53.208Z,100182.67
2018-01-12T05:26:24.552Z,100178.44
2018-01-12T05:28:56.230Z,100185.84
2018-01-12T05:31:27.896Z,100182.63
2018-01-12T05:33:59.150Z,100193.98
2018-01-12T05:36:31.379Z,100191.45
2018-01-12T05:39:03.403Z,100195.98
2018-01-12T05:41:34.668Z,100201.78
2018-01-12T05:44:07.009Z,100195.11
2018-01-12T05:46:39.781Z,100196.88
2018-01-12T05:49:13.383Z,100196.83
2018-01-12T05:51:49.444Z,100192.45
2018-01-12T05:54:22.320Z,100202.97
2018-01-12T05:56:54.887Z,100201.25
2018-01-12T05:59:27.830Z,100207.86
2018-01-12T06:08:32.058Z,100196.39
2018-01-12T06:11:03.794Z,100217.92
2018-01-12T06:13:35.227Z,100222.73
2018-01-12T06:16:08.125Z,100223.41
2018-01-12T06:18:40.027Z,100229.14
2018-01-12T06:21:12.400Z,100234.30
2018-01-12T06:23:44.939Z,100223.11
2018-01-12T06:26:17.210Z,100230.27
2018-01-12T06:28:50.009Z,100227.06
2018-01-12T06:31:21.784Z,100231.53
2018-01-12T06:33:54.697Z,100227.52
2018-01-12T06:36:29.517Z,100235.48
2018-01-12T06:39:01.139Z,100236.20
2018-01-12T06:41:32.741Z,100241.08
2018-01-12T06:44:04.655Z,100239.95
2018-01-12T06:46:35.934Z,100244.03
2018-01-12T06:49:09.351Z,100244.03
2018-01-12T06:51:40.882Z,100232.28
2018-01-12T06:54:23.044Z,100242.98
2018-01-12T06:56:54.876Z,100253.51
2018-01-12T06:59:30.270Z,100242.78
2018-01-12T07:02:02.231Z,100254.90
2018-01-12T07:04:33.681Z,100253.84
2018-01-12T07:07:05.617Z,100259.72
2018-01-12T07:09:37.705Z,100256.48
2018-01-12T07:12:10.332Z,100265.54
2018-01-12T07:14:50.399Z,100265.70
2018-01-12T07:17:23.693Z,100263.88
2018-01-12T07:19:56.399Z,100266.03
2018-01-12T07:22:36.993Z,100268.41
2018-01-12T07:25:08.917Z,100268.18
2018-01-12T07:27:42.743Z,100270.95
2018-01-12T07:30:15.791Z,100267.44
2018-01-12T07:32:47.380Z,100271.88
2018-01-12T07:35:20.432Z,100254.78
2018-01-12T07:37:53.105Z,100277.45
2018-01-12T07:40:31.827Z,100277.09
2018-01-12T07:43:03.653Z,100283.84
2018-01-12T07:45:35.638Z,100275.85
2018-01-12T07:48:07.574Z,100287.50
2018-01-12T07:50:38.861Z,100290.30
2018-01-12T07:53:14.190Z,100287.97
2018-01-12T07:55:47.727Z,100286.34
2018-01-12T07:58:20.232Z,100287.23
2018-01-12T08:00:57.276Z,100291.28
2018-01-12T08:03:28.632Z,100297.16
2018-01-12T08:06:00.903Z,100299.50
2018-01-12T08:08:32.572Z,100295.54
2018-01-12T08:11:05.632Z,100301.93
2018-01-12T08:13:37.188Z,100305.56
2018-01-12T08:16:08.580Z,100315.60
2018-01-12T08:18:40.152Z,100314.77
2018-01-12T08:21:12.444Z,100318.23
2018-01-12T08:23:44.416Z,100322.34
2018-01-12T08:26:17.057Z,100329.42
2018-01-12T08:28:49.913Z,100320.50
2018-01-12T08:31:22.003Z,100321.41
2018-01-12T08:33:53.680Z,100325.13
2018-01-12T08:36:25.161Z,100330.92
2018-01-12T08:38:56.732Z,100329.17
2018-01-12T08:41:28.050Z,100329.69
2018-01-12T08:44:03.793Z,100328.45
2018-01-12T08:46:35.420Z,100337.79
2018-01-12T08:49:08.409Z,100335.06
2018-01-12T08:51:40.455Z,100344.02
2018-01-12T08:54:11.782Z,100340.93
2018-01-12T08:56:44.271Z,100347.36
2018-01-12T08:59:16.960Z,100350.30
2018-01-12T09:01:49.887Z,100354.67
2018-01-12T09:04:22.343Z,100360.42
2018-01-12T09:06:57.255Z,100366.56
2018-01-12T09:09:30.416Z,100367.77
2018-01-12T09:12:01.882Z,100371.98
2018-01-12T09:14:42.080Z,100379.27
2018-01-12T09:17:14.120Z,100371.22
2018-01-12T09:19:50.952Z,100374.45
2018-01-12T09:22:30.622Z,100380.64
2018-01-12T09:25:06.592Z,100381.33
2018-01-12T09:27:39.256Z,100375.95
2018-01-12T09:30:13.412Z,100381.41
2018-01-12T09:32:46.286Z,100381.16
2018-01-12T09:35:17.439Z,100390.09
2018-01-12T09:37:49.059Z,100390.08
2018-01-12T09:40:23.082Z,100388.37
2018-01-12T09:42:54.209Z,100379.61
2018-01-12T09:45:26.739Z,100387.61
2018-01-12T09:48:07.020Z,100391.48
2018-01-12T09:50:38.889Z,100405.27
2018-01-12T09:53:12.002Z,100408.62
2018-01-12T09:55:44.101Z,100414.69
2018-01-12T09:58:15.843Z,100415.02
2018-01-12T10:00:50.524Z,100410.16
2018-01-12T10:03:23.448Z,100421.89
2018-01-12T10:05:55.748Z,100414.75
2018-01-12T10:08:28.501Z,100416.10
2018-01-12T10:10:59.785Z,100416.55
2018-01-12T10:13:32.098Z,100415.42
2018-01-12T10:16:03.357Z,100409.06
2018-01-12T10:18:38.542Z,100413.03
2018-01-12T10:21:12.466Z,100409.73
2018-01-12T10:23:43.953Z,100414.02
2018-01-12T10:26:16.087Z,100409.63
2018-01-12T10:28:57.901Z,100405.50
2018-01-12T10:31:36.316Z,100414.93
2018-01-12T10:34:10.649Z,100401.06
2018-01-12T10:36:48.400Z,100418.07
2018-01-12T10:39:27.632Z,100419.09
2018-01-12T10:42:06.373Z,100419.27
2018-01-12T10:44:37.761Z,100423.80
2018-01-12T10:47:19.295Z,100418.62
2018-01-12T10:49:59.988Z,100418.34
2018-01-12T10:52:35.181Z,100417.52
2018-01-12T10:55:08.669Z,100416.95
2018-01-12T10:57:40.141Z,100417.31
2018-01-12T11:00:22.185Z,100418.35
2018-01-12T11:02:55.919Z,100418.70
2018-01-12T11:05:27.694Z,100420.42
2018-01-12T11:07:59.194Z,100418.67
2018-01-12T11:10:30.843Z,100422.22
2018-01-12T11:13:02.959Z,100424.00
2018-01-12T11:15:36.529Z,100421.67
2018-01-12T11:18:10.060Z,100421.09
2018-01-12T11:20:43.948Z,100426.07
2018-01-12T11:23:16.419Z,100425.92
2018-01-12T11:25:49.437Z,100426.36
2018-01-12T11:28:22.688Z,100419.14
2018-01-12T11:30:54.943Z,100415.78
2018-01-12T11:33:26.171Z,100411.52
2018-01-12T11:35:57.915Z,100421.97
2018-01-12T11:38:29.176Z,100424.00
2018-01-12T11:41:00.398Z,100413.59
2018-01-12T11:43:32.016Z,100414.33
2018-01-12T11:46:03.141Z,100409.09
2018-01-12T11:48:34.416Z,100405.17
2018-01-12T11:51:06.235Z,100410.20
2018-01-12T11:53:38.002Z,100410.13
2018-01-12T11:56:09.855Z,100411.20
2018-01-12T11:58:42.372Z,100403.95
2018-01-12T12:01:17.105Z,100403.77
2018-01-12T12:03:49.400Z,100407.62
2018-01-12T12:06:21.952Z,100407.53
2018-01-12T12:08:54.793Z,100412.75
2018-01-12T12:11:27.874Z,100415.36
2018-01-12T12:14:00.262Z,100410.45
2018-01-12T12:16:34.463Z,100405.23
2018-01-12T12:19:07.246Z,100425.33
2018-01-12T12:21:40.509Z,100418.12
2018-01-12T12:24:12.903Z,100412.80
2018-01-12T12:26:43.951Z,100419.58
2018-01-12T12:29:18.090Z,100423.23
2018-01-12T12:31:57.492Z,100421.38
2018-01-12T12:34:28.896Z,100427.64
2018-01-12T12:37:08.216Z,100418.36
2018-01-12T12:39:41.324Z,100417.30
2018-01-12T12:42:12.915Z,100414.21
2018-01-12T12:44:45.310Z,100417.64
2018-01-12T12:47:17.500Z,100418.95
2018-01-12T12:49:50.140Z,100414.75
2018-01-12T12:52:23.382Z,100419.48
2018-01-12T12:54:54.620Z,100411.00
2018-01-12T12:57:27.108Z,100420.04
2018-01-12T12:59:58.461Z,100422.01
2018-01-12T13:02:31.275Z,100418.16
2018-01-12T13:05:04.891Z,100411.95
2018-01-12T13:07:36.212Z,100414.75
2018-01-12T13:10:11.379Z,100417.52
2018-01-12T13:12:43.184Z,100413.19
2018-01-12T13:15:18.410Z,100411.86
2018-01-12T13:17:52.798Z,100415.30
2018-01-12T13:20:25.681Z,100415.48
2018-01-12T13:22:56.840Z,100420.69
2018-01-12T13:25:28.580Z,100415.08
2018-01-12T13:28:00.899Z,100422.36
2018-01-12T13:30:32.200Z,100417.91
2018-01-12T13:33:05.621Z,100417.72
2018-01-12T13:35:36.795Z,100418.39
2018-01-12T13:38:08.184Z,100413.91
2018-01-12T13:40:41.645Z,100420.34
2018-01-12T13:43:13.400Z,100429.28
2018-01-12T13:45:44.940Z,100428.34
2018-01-12T13:48:16.152Z,100429.01
2018-01-12T13:50:51.202Z,100428.16
2018-01-12T13:53:23.116Z,100441.70
2018-01-12T13:55:56.431Z,100433.27
2018-01-12T13:58:29.588Z,100426.28
2018-01-12T14:01:01.728Z,100439.64
2018-01-12T14:03:33.691Z,100437.77
2018-01-12T14:06:07.341Z,100441.74
2018-01-12T14:08:40.537Z,100441.74
2018-01-12T14:11:13.993Z,100444.70
2018-01-12T14:13:46.723Z,100448.06
2018-01-12T14:16:22.083Z,100448.95
2018-01-12T14:18:56.698Z,100453.31
2018-01-12T14:21:31.399Z,100458.36
2018-01-12T14:24:09.026Z,100468.98
2018-01-12T14:26:41.923Z,100466.27
2018-01-12T14:29:22.102Z,100474.39
2018-01-12T14:31:54.564Z,100475.67
2018-01-12T14:34:29.044Z,100471.08
2018-01-12T14:37:02.420Z,100477.87
2018-01-12T14:39:34.712Z,100472.84
2018-01-12T14:42:07.549Z,100470.10
2018-01-12T14:44:39.412Z,100478.89
2018-01-12T14:47:12.479Z,100482.66
2018-01-12T14:49:45.259Z,100480.34
2018-01-12T14:52:17.098Z,100489.18
2018-01-12T14:54:52.623Z,100488.48
2018-01-12T14:57:24.804Z,100486.48
2018-01-12T14:59:57.212Z,100485.66
2018-01-12T15:05:24.284Z,100491.34
2018-01-12T15:07:58.024Z,100485.80
2018-01-12T15:10:33.217Z,100485.11
2018-01-12T15:13:14.363Z,100494.90
2018-01-12T15:15:46.654Z,100503.88
2018-01-12T15:18:19.606Z,100493.55
2018-01-12T15:20:53.419Z,100495.52
2018-01-12T15:23:27.818Z,100496.31
2018-01-12T15:26:03.443Z,100504.67
2018-01-12T15:28:35.440Z,100497.20
2018-01-12T15:31:11.907Z,100499.12
2018-01-12T15:33:44.848Z,100508.17
2018-01-12T16:52:39.814Z,100512.92
2018-01-12T16:55:11.778Z,100533.82
2018-01-12T16:57:46.792Z,100530.52
2018-01-12T17:00:19.686Z,100525.48
2018-01-12T17:02:51.402Z,100532.69
2018-01-12T17:05:24.549Z,100536.39
2018-01-12T17:07:57.706Z,100533.97
2018-01-12T17:10:30.099Z,100530.11
2018-01-12T17:13:03.503Z,100535.33
2018-01-12T17:15:34.907Z,100535.66
2018-01-12T17:18:07.194Z,100538.84
2018-01-12T17:20:39.087Z,100540.33
2018-01-12T17:23:11.465Z,100545.35
2018-01-12T17:25:43.016Z,100543.43
2018-01-12T17:28:14.775Z,100538.11
2018-01-12T17:30:49.530Z,100544.87
2018-01-12T17:33:22.308Z,100550.83
2018-01-12T17:35:55.086Z,100552.27
2018-01-12T17:38:27.436Z,100550.62
2018-01-12T17:40:59.473Z,100557.30
2018-01-12T17:43:31.989Z,100543.22
2018-01-12T17:46:06.861Z,100550.24
2018-01-12T17:48:39.044Z,100546.27
2018-01-12T17:51:10.631Z,100550.75
2018-01-12T17:53:44.029Z,100556.97
2018-01-12T17:56:16.465Z,100550.59
2018-01-12T17:58:48.171Z,100558.59
2018-01-12T18:01:23.893Z,100552.28
2018-01-12T18:03:57.670Z,100552.70
2018-01-12T18:06:29.237Z,100554.23
2018-01-12T18:09:00.515Z,100537.55
2018-01-12T18:11:32.108Z,100554.62
2018-01-12T18:14:05.725Z,100556.75
2018-01-12T18:16:38.632Z,100557.74
2018-01-12T18:19:10.415Z,100553.58
2018-01-12T18:21:42.694Z,100564.38
2018-01-12T18:24:16.862Z,100558.30
2018-01-12T18:26:50.634Z,100562.06
2018-01-12T18:29:23.090Z,100561.09
2018-01-12T18:31:56.162Z,100557.84
2018-01-12T18:34:28.178Z,100568.73
2018-01-12T18:37:02.288Z,100570.25
2018-01-12T18:39:33.631Z,100570.61
2018-01-12T18:42:07.404Z,100566.88
2018-01-12T18:44:39.619Z,100579.45
2018-01-12T18:47:11.256Z,100582.12
2018-01-12T18:49:44.921Z,100582.32
2018-01-12T18:52:17.332Z,100588.58
2018-01-12T18:54:51.813Z,100581.05
2018-01-12T18:57:23.890Z,100583.59
2018-01-12T18:59:57.200Z,100582.28
2018-01-12T19:02:29.462Z,100581.80
2018-01-12T19:05:01.254Z,100588.51
2018-01-12T19:10:18.163Z,100586.39
2018-01-12T19:12:57.215Z,100592.75
2018-01-12T19:15:30.289Z,100588.39
2018-01-12T19:18:01.988Z,100584.33
2018-01-12T19:20:33.890Z,100590.88
2018-01-12T19:23:05.334Z,100591.27
2018-01-12T19:25:36.477Z,100590.47
2018-01-12T19:28:08.908Z,100587.27
2018-01-12T19:30:41.222Z,100590.61
2018-01-12T19:33:16.540Z,100596.85
2018-01-12T19:35:48.310Z,100604.07
2018-01-12T19:38:19.557Z,100598.35
2018-01-12T19:40:50.890Z,100595.25
2018-01-12T19:43:23.932Z,100596.21
2018-01-12T19:45:59.353Z,100601.82
2018-01-12T19:48:32.313Z,100598.26
2018-01-12T19:51:04.022Z,100603.63
2018-01-12T19:53:36.295Z,100607.01
2018-01-12T19:56:10.176Z,100606.14
2018-01-12T19:58:42.296Z,100619.42
2018-01-12T20:03:47.590Z,100611.89
2018-01-12T20:06:25.065Z,100601.82
2018-01-12T20:15:29.575Z,100602.83
2018-01-12T20:19:23.368Z,100610.23
2018-01-12T20:22:44.840Z,100614.40
2018-01-12T20:25:20.554Z,100623.37
2018-01-12T20:27:53.808Z,100617.87
2018-01-12T20:30:54.400Z,100612.06
2018-01-12T20:40:01.510Z,100628.95
2018-01-12T20:42:36.809Z,100617.31
2018-01-12T20:45:10.613Z,100616.11
2018-01-12T21:12:35.156Z,100620.94
2018-01-12T21:15:33.401Z,100626.13
2018-01-12T21:21:39.678Z,100627.62
2018-01-12T21:24:11.908Z,100616.24
2018-01-12T21:26:46.052Z,100620.51
2018-01-12T21:29:20.584Z,100627.22
2018-01-12T21:31:53.935Z,100623.66
2018-01-12T21:34:26.659Z,100623.20
2018-01-12T21:37:00.015Z,100621.09
2018-01-12T21:39:32.737Z,100620.52
2018-01-12T21:42:05.024Z,100615.04
2018-01-12T21:44:37.737Z,100628.36
2018-01-12T21:47:10.424Z,100626.06
2018-01-12T21:49:51.242Z,100627.44
2018-01-12T21:52:22.912Z,100625.36
2018-01-12T21:54:55.855Z,100622.34
2018-01-12T21:57:27.915Z,100626.24
2018-01-12T22:00:30.511Z,100627.28
2018-01-12T22:03:02.989Z,100625.44
2018-01-12T22:05:42.606Z,100633.19
2018-01-12T22:08:14.938Z,100629.40
2018-01-12T22:10:50.164Z,100629.23
2018-01-12T22:13:22.467Z,100629.28
2018-01-12T22:15:55.490Z,100615.66
2018-01-12T22:18:28.316Z,100624.90
2018-01-12T22:21:01.073Z,100630.22
2018-01-12T22:23:32.486Z,100627.88
2018-01-12T22:26:03.871Z,100614.04
2018-01-12T22:28:35.545Z,100623.43
2018-01-12T22:31:07.742Z,100625.94
2018-01-12T22:33:40.802Z,100622.58
2018-01-12T22:36:14.613Z,100629.17
2018-01-12T22:38:48.365Z,100635.34
2018-01-12T22:41:21.609Z,100633.09
2018-01-12T22:43:55.319Z,100625.62
2018-01-12T22:46:26.467Z,100631.72
2018-01-12T22:49:00.404Z,100634.41
2018-01-12T22:51:32.603Z,100625.19
2018-01-12T22:54:03.980Z,100631.45
2018-01-12T22:56:36.760Z,100634.65
2018-01-12T22:59:08.168Z,100636.19
2018-01-12T23:01:41.288Z,100636.75
2018-01-12T23:04:16.339Z,100636.52
2018-01-12T23:06:48.980Z,100633.94
2018-01-12T23:09:22.859Z,100639.55
2018-01-12T23:11:59.023Z,100646.95
2018-01-12T23:14:35.681Z,100641.19
2018-01-12T23:17:11.318Z,100638.73
2018-01-12T23:19:47.394Z,100642.80
2018-01-12T23:22:20.837Z,100635.76
2018-01-12T23:24:56.804Z,100639.27
2018-01-12T23:27:28.665Z,100640.83
2018-01-12T23:30:00.784Z,100637.90
2018-01-12T23:32:32.082Z,100641.00
2018-01-12T23:35:03.355Z,100635.56
2018-01-12T23:37:35.112Z,100642.11
2018-01-12T23:40:06.699Z,100634.94
2018-01-12T23:42:38.806Z,100635.02
2018-01-12T23:45:10.747Z,100630.09
2018-01-12T23:47:41.932Z,100633.55
2018-01-12T23:50:15.039Z,100629.89
2018-01-12T23:52:47.100Z,100631.02
2018-01-12T23:55:19.143Z,100629.80
2018-01-12T23:57:52.538Z,100634.86
